• Join FlightAware (Why Join?)
  • Login
  • US Flag 
03:44AM EDT


 

Airport Tracker/Info


-or-


 

Live Flight TrackerFlight Track Log ✈ WJA108 ✈ 06-May-2012 ✈ CYVR - CYEG

Flight Track Log - Related Links

Times and Time Zones

All times are in EDT time to prevent confusion due to time zone crossing. See the WJA108 flight status page for this flight to view local times or setup timezone preferences in your user account.

Time Position Orientation Groundspeed Altitude Reporting Facility
EDT Latitude Longitude Course Direction KTS MPH feet Rate Location/Type
11:18AM 49.1667 -123.1333 55° Northeast 160 184 1,500  Level Vancouver Center
11:23AM 49.3667 -122.7000 38° Northeast 350 403 15,200 2,700 Climbing Vancouver Center
11:24AM 49.4500 -122.6000 49° Northeast 360 414 17,900 2,700 Climbing Vancouver Center
11:25AM 49.5167 -122.4833 33° Northeast 380 437 20,700 2,880 Climbing Vancouver Center
11:26AM 49.6167 -122.3833 52° Northeast 400 460 23,700 2,820 Climbing Vancouver Center
11:27AM 49.6833 -122.2500 41° Northeast 410 472 26,400 2,580 Climbing Vancouver Center
11:28AM 49.7833 -122.1167 38° Northeast 420 483 28,900 2,280 Climbing Vancouver Center
11:29AM 49.8667 -122.0167 52° Northeast 420 483 31,000 1,980 Climbing Vancouver Center
11:30AM 49.9333 -121.8833 41° Northeast 430 495 32,900 2,040 Climbing Vancouver Center
11:31AM 50.0333 -121.7500 46° Northeast 430 495 35,100 1,920 Climbing Vancouver Center
11:32AM 50.1167 -121.6167 42° Northeast 430 495 36,800 1,620 Climbing Vancouver Center
11:33AM 50.2000 -121.5000 49° Northeast 420 483 38,400 1,200 Climbing Vancouver Center
11:34AM 50.2833 -121.3500 52° Northeast 430 495 39,200 720 Climbing Vancouver Center
11:35AM 50.3500 -121.2167 62° Northeast 440 506 39,900 780 Climbing Vancouver Center
11:36AM 50.4167 -121.0167 52° Northeast 440 506 40,800 540 Climbing Vancouver Center
11:37AM 50.4833 -120.8833 52° Northeast 450 518 41,000 60 Climbing Vancouver Center
11:38AM 50.5667 -120.7167 49° Northeast 450 518 41,000  Level Vancouver Center
11:39AM 50.6500 -120.5667 65° Northeast 450 518 41,000  Level Vancouver Center
11:40AM 50.7000 -120.4000 52° Northeast 450 518 41,000  Level Vancouver Center
11:41AM 50.7833 -120.2333 52° Northeast 440 506 41,000  Level Vancouver Center
11:42AM 50.8500 -120.1000 56° Northeast 440 506 41,000  Level Vancouver Center
11:43AM 50.9333 -119.9000 59° Northeast 440 506 41,000  Level Vancouver Center
11:44AM 50.9833 -119.7667 51° Northeast 440 506 41,000  Level Vancouver Center
11:45AM 51.0667 -119.6000 51° Northeast 440 506 41,000  Level Vancouver Center
11:46AM 51.1500 -119.4333 59° Northeast 440 506 41,000  Level Vancouver Center
11:47AM 51.2000 -119.3000 56° Northeast 440 506 41,000  Level Vancouver Center
11:48AM 51.2833 -119.1000 62° Northeast 450 518 41,000  Level Vancouver Center
11:49AM 51.3333 -118.9500 51° Northeast 450 518 41,000  Level Vancouver Center
11:50AM 51.4167 -118.7833 51° Northeast 450 518 41,000  Level Vancouver Center
11:51AM 51.5000 -118.6167 64° Northeast 450 518 41,000  Level Vancouver Center
11:52AM 51.5500 -118.4500 51° Northeast 450 518 41,000  Level Vancouver Center
11:53AM 51.6333 -118.2833 62° Northeast 450 518 41,000  Level Vancouver Center
11:54AM 51.6833 -118.1333 56° Northeast 450 518 41,000  Level Vancouver Center
11:55AM 51.7667 -117.9333 51° Northeast 450 518 41,000  Level Vancouver Center
11:56AM 51.8333 -117.8000 59° Northeast 450 518 41,000  Level Vancouver Center
11:57AM 51.9000 -117.6167 46° Northeast 440 506 41,000  Level Vancouver Center
11:58AM 51.9500 -117.5333 64° Northeast 440 506 41,000  Level Edmonton Center
11:59AM 52.0000 -117.3667 53° Northeast 440 506 41,000  Level Edmonton Center
12:00PM 52.0833 -117.1833 57° Northeast 440 506 41,000  Level Edmonton Center
12:01PM 52.1500 -117.0167 60° Northeast 450 518 41,000  Level Edmonton Center
12:02PM 52.2333 -116.7833 61° Northeast 450 518 41,000  Level Vancouver Center
12:03PM 52.3000 -116.5833 53° Northeast 450 518 41,000 -120 Level Vancouver Center
12:04PM 52.3833 -116.4000 64° Northeast 460 529 40,800 -1,440 Descending Vancouver Center
12:05PM 52.4333 -116.2333 31° Northeast 460 529 38,200 -2,460 Descending Vancouver Center
12:06PM 52.5000 -116.1667 66° East 450 518 36,100 -2,220 Descending Edmonton Center
12:07PM 52.5500 -115.9833 54° Northeast 430 495 34,000 -2,100 Descending Edmonton Center
12:08PM 52.6167 -115.8333 59° Northeast 410 472 32,000 -2,100 Descending Edmonton Center
12:09PM 52.6833 -115.6500 68° East 390 449 29,900 -2,040 Descending Edmonton Center
12:10PM 52.7167 -115.5167 61° Northeast 380 437 28,000 -1,980 Descending Edmonton Center
12:11PM 52.7667 -115.3667 50° Northeast 360 414 26,000 -1,860 Descending Edmonton Center
12:12PM 52.8333 -115.2333 58° Northeast 350 403 24,300 -1,800 Descending Edmonton Center
12:13PM 52.8833 -115.1000 61° Northeast 350 403 22,500 -1,860 Descending Edmonton Center
12:14PM 52.9333 -114.9500 58° Northeast 340 391 20,600 -1,800 Descending Edmonton Center
12:15PM 52.9833 -114.8167 78° East 330 380 19,000 -2,340 Descending Edmonton Center
12:16PM 53.0000 -114.6833 72° East 330 380 16,000 -2,220 Descending Edmonton Center
12:17PM 53.0333 -114.5167 80° East 350 403 14,600 -1,560 Descending Edmonton Center
12:18PM 53.0500 -114.3500 78° East 330 380 12,900 -1,500 Descending Edmonton Center
12:19PM 53.0667 -114.2167 90° East 310 357 11,700 -1,620 Descending Edmonton Center
12:20PM 53.0667 -114.1000 67° East 280 322 9,700 -1,500 Descending Edmonton Center
12:21PM 53.1000 -113.9667 90° East 280 322 8,700 -1,080 Descending Edmonton Center
12:22PM 53.1000 -113.8500 74° East 270 311 7,600 -900 Descending Edmonton Center
12:23PM 53.1167 -113.7500 90° East 250 288 6,900 -600 Descending Edmonton Center
12:24PM 53.1167 -113.6333 56° Northeast 210 242 6,500 -720 Descending Edmonton Center
12:25PM 53.1500 -113.5500 61° Northeast 190 219 5,500 -1,020 Descending Edmonton Center
12:26PM 53.1667 -113.5000 349° North 170 196 4,500 -900 Descending Edmonton Center
12:27PM 53.2167 -113.5167 329° Northwest 140 161 3,700 -720 Descending Edmonton Center
12:28PM 53.2333 -113.5333 318° Northwest 130 150 3,100 -660 Descending Edmonton Center
12:29PM 53.2667 -113.5833 318° Northwest 130 150 2,400 -720 Descending Edmonton Center